Terminal Aerodrome Forecast
Issued by NWS

Home | Current Version | Previous Version | Text Only | Print | Product List | Glossary On
Versions: 1 2 3 4 5 6 7 8 9 10 11 12 13 14
093
FTUS43 KMQT 072321
TAFIWD
TAF
KIWD 072321Z 0800/0824 26018G25KT 2SM -SHSN BLSN OVC018
     FM080200 26020G27KT 1 1/2SM -SHSN BLSN OVC015
     FM080600 29015G22KT 1SM -SHSN BLSN OVC008
     FM081200 32014G21KT 3/4SM -SHSN BLSN OVC010
     FM081500 35014G23KT 1SM -SHSN BLSN OVC010=

USA.gov is the U.S. government's official web portal to all federal, state and local government web resources and services.